sensor_id;sensor_type;location;lat;lon;timestamp;pressure;altitude;pressure_sealevel;temperature
13219;BMP180;6674;49.152;11.918;2023-08-20T00:01:26;96400.19;;;25.93
13219;BMP180;6674;49.152;11.918;2023-08-20T00:03:54;96408.91;;;25.93
13219;BMP180;6674;49.152;11.918;2023-08-20T00:06:21;96402.63;;;25.89
13219;BMP180;6674;49.152;11.918;2023-08-20T00:09:14;96407.91;;;25.89
13219;BMP180;6674;49.152;11.918;2023-08-20T00:11:42;96393.88;;;25.80
13219;BMP180;6674;49.152;11.918;2023-08-20T00:14:15;96396.81;;;25.79
13219;BMP180;6674;49.152;11.918;2023-08-20T00:16:42;96394.16;;;25.79
13219;BMP180;6674;49.152;11.918;2023-08-20T00:19:11;96392.28;;;25.79
13219;BMP180;6674;49.152;11.918;2023-08-20T00:21:40;96395.75;;;25.80
13219;BMP180;6674;49.152;11.918;2023-08-20T00:24:08;96391.22;;;25.80
13219;BMP180;6674;49.152;11.918;2023-08-20T00:26:37;96382.53;;;25.80
13219;BMP180;6674;49.152;11.918;2023-08-20T00:29:04;96385.47;;;25.78
13219;BMP180;6674;49.152;11.918;2023-08-20T00:31:30;96378.59;;;25.77
13219;BMP180;6674;49.152;11.918;2023-08-20T00:33:57;96385.28;;;25.75
13219;BMP180;6674;49.152;11.918;2023-08-20T00:36:24;96383.53;;;25.70
13219;BMP180;6674;49.152;11.918;2023-08-20T00:38:51;96366.22;;;25.64
13219;BMP180;6674;49.152;11.918;2023-08-20T00:41:17;96377.88;;;25.63
13219;BMP180;6674;49.152;11.918;2023-08-20T00:43:46;96384.50;;;25.61
13219;BMP180;6674;49.152;11.918;2023-08-20T00:46:12;96389.03;;;25.60
13219;BMP180;6674;49.152;11.918;2023-08-20T00:48:39;96382.75;;;25.57
13219;BMP180;6674;49.152;11.918;2023-08-20T00:51:06;96386.59;;;25.51
13219;BMP180;6674;49.152;11.918;2023-08-20T00:53:32;96391.19;;;25.45
13219;BMP180;6674;49.152;11.918;2023-08-20T00:56:00;96391.59;;;25.39
13219;BMP180;6674;49.152;11.918;2023-08-20T00:58:27;96392.81;;;25.33
13219;BMP180;6674;49.152;11.918;2023-08-20T01:00:55;96388.03;;;25.21
13219;BMP180;6674;49.152;11.918;2023-08-20T01:03:22;96390.88;;;25.25
13219;BMP180;6674;49.152;11.918;2023-08-20T01:05:51;96387.75;;;25.23
13219;BMP180;6674;49.152;11.918;2023-08-20T01:08:26;96388.53;;;25.23
13219;BMP180;6674;49.152;11.918;2023-08-20T01:10:58;96399.84;;;25.24
13219;BMP180;6674;49.152;11.918;2023-08-20T01:13:28;96401.25;;;25.21
13219;BMP180;6674;49.152;11.918;2023-08-20T01:15:56;96394.22;;;25.17
13219;BMP180;6674;49.152;11.918;2023-08-20T01:18:23;96399.88;;;25.11
13219;BMP180;6674;49.152;11.918;2023-08-20T01:20:55;96392.06;;;25.06
13219;BMP180;6674;49.152;11.918;2023-08-20T01:23:56;96402.44;;;25.02
13219;BMP180;6674;49.152;11.918;2023-08-20T01:26:38;96404.09;;;24.98
13219;BMP180;6674;49.152;11.918;2023-08-20T01:29:07;96399.38;;;24.95
13219;BMP180;6674;49.152;11.918;2023-08-20T01:31:34;96407.81;;;24.97
13219;BMP180;6674;49.152;11.918;2023-08-20T01:34:01;96402.53;;;24.97
13219;BMP180;6674;49.152;11.918;2023-08-20T01:36:28;96417.81;;;25.00
13219;BMP180;6674;49.152;11.918;2023-08-20T01:38:54;96408.31;;;24.99
13219;BMP180;6674;49.152;11.918;2023-08-20T01:41:21;96419.34;;;25.01
13219;BMP180;6674;49.152;11.918;2023-08-20T01:43:48;96411.22;;;24.98
13219;BMP180;6674;49.152;11.918;2023-08-20T01:46:16;96418.38;;;24.97
13219;BMP180;6674;49.152;11.918;2023-08-20T01:48:42;96424.63;;;25.01
13219;BMP180;6674;49.152;11.918;2023-08-20T01:51:09;96422.78;;;25.02
13219;BMP180;6674;49.152;11.918;2023-08-20T01:53:35;96426.69;;;25.04
13219;BMP180;6674;49.152;11.918;2023-08-20T01:56:02;96429.31;;;25.04
13219;BMP180;6674;49.152;11.918;2023-08-20T01:58:29;96423.56;;;25.02
13219;BMP180;6674;49.152;11.918;2023-08-20T02:00:56;96418.28;;;25.02
13219;BMP180;6674;49.152;11.918;2023-08-20T02:03:24;96425.09;;;25.03
13219;BMP180;6674;49.152;11.918;2023-08-20T02:05:50;96424.03;;;25.04
13219;BMP180;6674;49.152;11.918;2023-08-20T02:08:17;96430.38;;;25.03
13219;BMP180;6674;49.152;11.918;2023-08-20T02:10:44;96434.13;;;25.02
13219;BMP180;6674;49.152;11.918;2023-08-20T02:13:13;96436.56;;;24.99
13219;BMP180;6674;49.152;11.918;2023-08-20T02:15:39;96429.41;;;24.99
13219;BMP180;6674;49.152;11.918;2023-08-20T02:18:06;96433.94;;;24.99
13219;BMP180;6674;49.152;11.918;2023-08-20T02:20:34;96430.16;;;24.86
13219;BMP180;6674;49.152;11.918;2023-08-20T02:23:01;96429.19;;;24.82
13219;BMP180;6674;49.152;11.918;2023-08-20T02:25:28;96429.00;;;24.79
13219;BMP180;6674;49.152;11.918;2023-08-20T02:27:55;96436.13;;;24.78
13219;BMP180;6674;49.152;11.918;2023-08-20T02:30:22;96444.31;;;24.77
13219;BMP180;6674;49.152;11.918;2023-08-20T02:32:49;96446.19;;;24.76
13219;BMP180;6674;49.152;11.918;2023-08-20T02:35:15;96442.78;;;24.76
13219;BMP180;6674;49.152;11.918;2023-08-20T02:37:43;96446.47;;;24.75
13219;BMP180;6674;49.152;11.918;2023-08-20T02:40:10;96451.56;;;24.72
13219;BMP180;6674;49.152;11.918;2023-08-20T02:42:39;96449.50;;;24.69
13219;BMP180;6674;49.152;11.918;2023-08-20T02:45:07;96454.69;;;24.73
13219;BMP180;6674;49.152;11.918;2023-08-20T02:47:34;96466.34;;;24.73
13219;BMP180;6674;49.152;11.918;2023-08-20T02:50:01;96458.41;;;24.73
13219;BMP180;6674;49.152;11.918;2023-08-20T02:52:28;96461.81;;;24.73
13219;BMP180;6674;49.152;11.918;2023-08-20T02:54:56;96461.63;;;24.70
13219;BMP180;6674;49.152;11.918;2023-08-20T02:57:22;96463.56;;;24.64
13219;BMP180;6674;49.152;11.918;2023-08-20T02:59:50;96470.78;;;24.59
13219;BMP180;6674;49.152;11.918;2023-08-20T03:02:16;96463.06;;;24.62
13219;BMP180;6674;49.152;11.918;2023-08-20T03:04:43;96463.06;;;24.62
13219;BMP180;6674;49.152;11.918;2023-08-20T03:07:10;96472.38;;;24.60
13219;BMP180;6674;49.152;11.918;2023-08-20T03:09:37;96465.59;;;24.54
13219;BMP180;6674;49.152;11.918;2023-08-20T03:12:06;96464.84;;;24.53
13219;BMP180;6674;49.152;11.918;2023-08-20T03:14:33;96472.22;;;24.51
13219;BMP180;6674;49.152;11.918;2023-08-20T03:17:00;96463.63;;;24.46
13219;BMP180;6674;49.152;11.918;2023-08-20T03:19:29;96465.22;;;24.47
13219;BMP180;6674;49.152;11.918;2023-08-20T03:21:56;96466.25;;;24.46
13219;BMP180;6674;49.152;11.918;2023-08-20T03:24:23;96457.88;;;24.44
13219;BMP180;6674;49.152;11.918;2023-08-20T03:26:49;96460.00;;;24.42
13219;BMP180;6674;49.152;11.918;2023-08-20T03:29:17;96463.13;;;24.44
13219;BMP180;6674;49.152;11.918;2023-08-20T03:31:44;96463.72;;;24.41
13219;BMP180;6674;49.152;11.918;2023-08-20T03:34:12;96457.19;;;24.38
13219;BMP180;6674;49.152;11.918;2023-08-20T03:36:39;96461.66;;;24.38
13219;BMP180;6674;49.152;11.918;2023-08-20T03:39:06;96456.47;;;24.33
13219;BMP180;6674;49.152;11.918;2023-08-20T03:41:33;96452.81;;;24.29
13219;BMP180;6674;49.152;11.918;2023-08-20T03:43:59;96459.09;;;24.33
13219;BMP180;6674;49.152;11.918;2023-08-20T03:46:28;96454.66;;;24.28
13219;BMP180;6674;49.152;11.918;2023-08-20T03:48:54;96449.97;;;24.26
13219;BMP180;6674;49.152;11.918;2023-08-20T03:51:21;96457.09;;;24.25
13219;BMP180;6674;49.152;11.918;2023-08-20T03:53:47;96451.91;;;24.20
13219;BMP180;6674;49.152;11.918;2023-08-20T03:56:14;96444.56;;;24.17
13219;BMP180;6674;49.152;11.918;2023-08-20T03:58:41;96450.16;;;24.16
13219;BMP180;6674;49.152;11.918;2023-08-20T04:01:07;96454.13;;;24.13
13219;BMP180;6674;49.152;11.918;2023-08-20T04:03:36;96445.88;;;24.01
13219;BMP180;6674;49.152;11.918;2023-08-20T04:06:03;96460.63;;;24.02
13219;BMP180;6674;49.152;11.918;2023-08-20T04:08:30;96447.50;;;23.97
13219;BMP180;6674;49.152;11.918;2023-08-20T04:10:57;96451.53;;;23.95
13219;BMP180;6674;49.152;11.918;2023-08-20T04:13:23;96454.53;;;23.88
13219;BMP180;6674;49.152;11.918;2023-08-20T04:15:51;96463.00;;;23.85
13219;BMP180;6674;49.152;11.918;2023-08-20T04:18:17;96476.44;;;23.84
13219;BMP180;6674;49.152;11.918;2023-08-20T04:20:45;96469.38;;;23.80
13219;BMP180;6674;49.152;11.918;2023-08-20T04:23:12;96466.75;;;23.80
13219;BMP180;6674;49.152;11.918;2023-08-20T04:25:39;96469.47;;;23.75
13219;BMP180;6674;49.152;11.918;2023-08-20T04:28:05;96471.31;;;23.74
13219;BMP180;6674;49.152;11.918;2023-08-20T04:30:32;96467.69;;;23.70
13219;BMP180;6674;49.152;11.918;2023-08-20T04:33:00;96468.19;;;23.72
13219;BMP180;6674;49.152;11.918;2023-08-20T04:35:27;96468.47;;;23.71
13219;BMP180;6674;49.152;11.918;2023-08-20T04:37:55;96470.63;;;23.69
13219;BMP180;6674;49.152;11.918;2023-08-20T04:40:22;96469.81;;;23.68
13219;BMP180;6674;49.152;11.918;2023-08-20T04:42:49;96471.97;;;23.66
13219;BMP180;6674;49.152;11.918;2023-08-20T04:45:16;96462.78;;;23.64
13219;BMP180;6674;49.152;11.918;2023-08-20T04:47:45;96467.00;;;23.60
13219;BMP180;6674;49.152;11.918;2023-08-20T04:50:12;96469.13;;;23.63
13219;BMP180;6674;49.152;11.918;2023-08-20T04:52:39;96478.06;;;23.62
13219;BMP180;6674;49.152;11.918;2023-08-20T04:55:08;96475.97;;;23.59
13219;BMP180;6674;49.152;11.918;2023-08-20T04:57:35;96484.41;;;23.61
13219;BMP180;6674;49.152;11.918;2023-08-20T05:00:02;96474.91;;;23.60
13219;BMP180;6674;49.152;11.918;2023-08-20T05:02:29;96478.59;;;23.59
13219;BMP180;6674;49.152;11.918;2023-08-20T05:04:56;96482.81;;;23.60
13219;BMP180;6674;49.152;11.918;2023-08-20T05:07:23;96475.19;;;23.58
13219;BMP180;6674;49.152;11.918;2023-08-20T05:09:50;96475.19;;;23.58
13219;BMP180;6674;49.152;11.918;2023-08-20T05:12:18;96478.59;;;23.59
13219;BMP180;6674;49.152;11.918;2023-08-20T05:14:44;96474.41;;;23.58
13219;BMP180;6674;49.152;11.918;2023-08-20T05:17:11;96487.75;;;23.66
13219;BMP180;6674;49.152;11.918;2023-08-20T05:19:38;96485.41;;;23.65
13219;BMP180;6674;49.152;11.918;2023-08-20T05:22:04;96487.97;;;23.70
13219;BMP180;6674;49.152;11.918;2023-08-20T05:24:31;96487.41;;;23.73
13219;BMP180;6674;49.152;11.918;2023-08-20T05:27:05;96492.13;;;23.76
13219;BMP180;6674;49.152;11.918;2023-08-20T05:29:33;96498.66;;;23.78
13219;BMP180;6674;49.152;11.918;2023-08-20T05:32:00;96502.31;;;23.82
13219;BMP180;6674;49.152;11.918;2023-08-20T05:34:27;96504.09;;;23.86
13219;BMP180;6674;49.152;11.918;2023-08-20T05:36:54;96498.81;;;23.86
13219;BMP180;6674;49.152;11.918;2023-08-20T05:39:20;96498.97;;;23.95
13219;BMP180;6674;49.152;11.918;2023-08-20T05:41:48;96505.50;;;23.97
13219;BMP180;6674;49.152;11.918;2023-08-20T05:44:15;96517.06;;;24.01
13219;BMP180;6674;49.152;11.918;2023-08-20T05:46:43;96513.84;;;24.04
13219;BMP180;6674;49.152;11.918;2023-08-20T05:49:09;96511.41;;;24.08
13219;BMP180;6674;49.152;11.918;2023-08-20T05:51:37;96509.28;;;24.10
13219;BMP180;6674;49.152;11.918;2023-08-20T05:54:04;96504.69;;;24.15
13219;BMP180;6674;49.152;11.918;2023-08-20T05:56:31;96508.63;;;24.18
13219;BMP180;6674;49.152;11.918;2023-08-20T05:58:57;96501.69;;;24.22
13219;BMP180;6674;49.152;11.918;2023-08-20T06:01:24;96504.25;;;24.27
13219;BMP180;6674;49.152;11.918;2023-08-20T06:03:52;96497.72;;;24.24
13219;BMP180;6674;49.152;11.918;2023-08-20T06:06:19;96504.50;;;24.30
13219;BMP180;6674;49.152;11.918;2023-08-20T06:08:45;96508.13;;;24.34
13219;BMP180;6674;49.152;11.918;2023-08-20T06:11:12;96509.59;;;24.40
13219;BMP180;6674;49.152;11.918;2023-08-20T06:13:39;96502.22;;;24.42
13219;BMP180;6674;49.152;11.918;2023-08-20T06:16:06;96509.84;;;24.43
13219;BMP180;6674;49.152;11.918;2023-08-20T06:18:34;96505.81;;;24.46
13219;BMP180;6674;49.152;11.918;2023-08-20T06:21:04;96514.94;;;24.53
13219;BMP180;6674;49.152;11.918;2023-08-20T06:23:31;96515.16;;;24.57
13219;BMP180;6674;49.152;11.918;2023-08-20T06:25:58;96508.69;;;24.63
13219;BMP180;6674;49.152;11.918;2023-08-20T06:28:24;96517.13;;;24.65
13219;BMP180;6674;49.152;11.918;2023-08-20T06:30:52;96512.03;;;24.68
13219;BMP180;6674;49.152;11.918;2023-08-20T06:33:19;96520.44;;;24.70
13219;BMP180;6674;49.152;11.918;2023-08-20T06:35:46;96527.31;;;24.71
13219;BMP180;6674;49.152;11.918;2023-08-20T06:38:15;96521.44;;;24.74
13219;BMP180;6674;49.152;11.918;2023-08-20T06:40:41;96524.78;;;24.79
13219;BMP180;6674;49.152;11.918;2023-08-20T06:43:08;96524.13;;;24.87
13219;BMP180;6674;49.152;11.918;2023-08-20T06:45:35;96529.78;;;24.94
13219;BMP180;6674;49.152;11.918;2023-08-20T06:48:04;96537.66;;;24.99
13219;BMP180;6674;49.152;11.918;2023-08-20T06:50:31;96524.84;;;25.06
13219;BMP180;6674;49.152;11.918;2023-08-20T06:52:58;96527.38;;;25.11
13219;BMP180;6674;49.152;11.918;2023-08-20T06:55:26;96526.22;;;25.17
13219;BMP180;6674;49.152;11.918;2023-08-20T06:57:53;96523.47;;;25.22
13219;BMP180;6674;49.152;11.918;2023-08-20T07:00:20;96530.81;;;25.25
13219;BMP180;6674;49.152;11.918;2023-08-20T07:02:48;96528.19;;;25.25
13219;BMP180;6674;49.152;11.918;2023-08-20T07:05:14;96531.69;;;25.34
13219;BMP180;6674;49.152;11.918;2023-08-20T07:07:42;96539.03;;;25.37
13219;BMP180;6674;49.152;11.918;2023-08-20T07:10:10;96534.75;;;25.41
13219;BMP180;6674;49.152;11.918;2023-08-20T07:12:39;96537.56;;;25.44
13219;BMP180;6674;49.152;11.918;2023-08-20T07:15:11;96542.47;;;25.51
13219;BMP180;6674;49.152;11.918;2023-08-20T07:17:38;96540.50;;;25.56
13219;BMP180;6674;49.152;11.918;2023-08-20T07:20:08;96544.06;;;25.65
13219;BMP180;6674;49.152;11.918;2023-08-20T07:22:41;96538.97;;;25.68
13219;BMP180;6674;49.152;11.918;2023-08-20T07:25:08;96532.47;;;25.74
13219;BMP180;6674;49.152;11.918;2023-08-20T07:27:42;96533.75;;;25.77
13219;BMP180;6674;49.152;11.918;2023-08-20T07:30:10;96536.97;;;25.87
13219;BMP180;6674;49.152;11.918;2023-08-20T07:32:37;96544.66;;;25.97
13219;BMP180;6674;49.152;11.918;2023-08-20T07:35:06;96540.72;;;26.08
13219;BMP180;6674;49.152;11.918;2023-08-20T07:37:33;96533.97;;;26.15
13219;BMP180;6674;49.152;11.918;2023-08-20T07:40:00;96540.31;;;26.28
13219;BMP180;6674;49.152;11.918;2023-08-20T07:42:31;96542.13;;;26.41
13219;BMP180;6674;49.152;11.918;2023-08-20T07:45:00;96534.41;;;26.52
13219;BMP180;6674;49.152;11.918;2023-08-20T07:47:27;96532.44;;;26.58
13219;BMP180;6674;49.152;11.918;2023-08-20T07:49:55;96538.13;;;26.73
13219;BMP180;6674;49.152;11.918;2023-08-20T07:52:22;96532.13;;;26.81
13219;BMP180;6674;49.152;11.918;2023-08-20T07:54:48;96530.81;;;26.92
13219;BMP180;6674;49.152;11.918;2023-08-20T07:57:15;96529.47;;;27.03
13219;BMP180;6674;49.152;11.918;2023-08-20T07:59:41;96533.41;;;27.14
13219;BMP180;6674;49.152;11.918;2023-08-20T08:02:11;96528.47;;;27.21
13219;BMP180;6674;49.152;11.918;2023-08-20T08:04:37;96528.81;;;27.36
13219;BMP180;6674;49.152;11.918;2023-08-20T08:07:06;96531.78;;;27.35
13219;BMP180;6674;49.152;11.918;2023-08-20T08:09:34;96539.03;;;27.51
13219;BMP180;6674;49.152;11.918;2023-08-20T08:12:01;96538.59;;;27.57
13219;BMP180;6674;49.152;11.918;2023-08-20T08:14:28;96535.63;;;27.67
13219;BMP180;6674;49.152;11.918;2023-08-20T08:16:55;96541.16;;;27.87
13219;BMP180;6674;49.152;11.918;2023-08-20T08:19:23;96548.50;;;27.99
13219;BMP180;6674;49.152;11.918;2023-08-20T08:21:49;96545.28;;;28.10
13219;BMP180;6674;49.152;11.918;2023-08-20T08:24:16;96549.47;;;28.20
13219;BMP180;6674;49.152;11.918;2023-08-20T08:26:43;96558.22;;;28.28
13219;BMP180;6674;49.152;11.918;2023-08-20T08:29:09;96550.72;;;28.39
13219;BMP180;6674;49.152;11.918;2023-08-20T08:31:37;96555.41;;;28.50
13219;BMP180;6674;49.152;11.918;2023-08-20T08:34:09;96551.97;;;28.50
13219;BMP180;6674;49.152;11.918;2023-08-20T08:36:38;96544.81;;;28.67
13219;BMP180;6674;49.152;11.918;2023-08-20T08:39:04;96555.25;;;28.80
13219;BMP180;6674;49.152;11.918;2023-08-20T08:41:35;96554.78;;;28.87
13219;BMP180;6674;49.152;11.918;2023-08-20T08:44:02;96553.34;;;28.98
13219;BMP180;6674;49.152;11.918;2023-08-20T08:46:29;96553.94;;;29.03
13219;BMP180;6674;49.152;11.918;2023-08-20T08:48:59;96564.09;;;29.10
13219;BMP180;6674;49.152;11.918;2023-08-20T08:51:26;96558.44;;;29.19
13219;BMP180;6674;49.152;11.918;2023-08-20T08:53:55;96555.94;;;29.23
13219;BMP180;6674;49.152;11.918;2023-08-20T08:56:22;96550.72;;;29.35
13219;BMP180;6674;49.152;11.918;2023-08-20T08:58:49;96554.56;;;29.54
13219;BMP180;6674;49.152;11.918;2023-08-20T09:01:16;96555.75;;;29.65
13219;BMP180;6674;49.152;11.918;2023-08-20T09:03:43;96557.91;;;29.80
13219;BMP180;6674;49.152;11.918;2023-08-20T09:06:09;96554.53;;;29.91
13219;BMP180;6674;49.152;11.918;2023-08-20T09:08:37;96560.72;;;30.03
13219;BMP180;6674;49.152;11.918;2023-08-20T09:11:05;96550.91;;;30.16
13219;BMP180;6674;49.152;11.918;2023-08-20T09:13:34;96546.28;;;30.33
13219;BMP180;6674;49.152;11.918;2023-08-20T09:16:05;96555.25;;;30.49
13219;BMP180;6674;49.152;11.918;2023-08-20T09:18:37;96556.06;;;30.61
13219;BMP180;6674;49.152;11.918;2023-08-20T09:21:06;96558.47;;;30.75
13219;BMP180;6674;49.152;11.918;2023-08-20T09:23:33;96561.81;;;30.84
13219;BMP180;6674;49.152;11.918;2023-08-20T09:26:01;96556.75;;;30.90
13219;BMP180;6674;49.152;11.918;2023-08-20T09:28:30;96562.13;;;31.02
13219;BMP180;6674;49.152;11.918;2023-08-20T09:31:06;96559.03;;;31.12
13219;BMP180;6674;49.152;11.918;2023-08-20T09:33:33;96557.84;;;31.22
13219;BMP180;6674;49.152;11.918;2023-08-20T09:35:59;96558.28;;;31.35
13219;BMP180;6674;49.152;11.918;2023-08-20T09:38:29;96572.22;;;31.53
13219;BMP180;6674;49.152;11.918;2023-08-20T09:40:55;96569.13;;;31.63
13219;BMP180;6674;49.152;11.918;2023-08-20T09:43:24;96558.31;;;31.83
13219;BMP180;6674;49.152;11.918;2023-08-20T09:45:55;96556.69;;;31.78
13219;BMP180;6674;49.152;11.918;2023-08-20T09:48:24;96557.13;;;31.92
13219;BMP180;6674;49.152;11.918;2023-08-20T09:50:56;96550.66;;;32.05
13219;BMP180;6674;49.152;11.918;2023-08-20T09:53:30;96556.28;;;32.16
13219;BMP180;6674;49.152;11.918;2023-08-20T09:56:05;96552.06;;;32.26
13219;BMP180;6674;49.152;11.918;2023-08-20T09:58:35;96559.25;;;32.50
13219;BMP180;6674;49.152;11.918;2023-08-20T10:01:05;96562.13;;;32.57
13219;BMP180;6674;49.152;11.918;2023-08-20T10:03:33;96556.88;;;32.60
13219;BMP180;6674;49.152;11.918;2023-08-20T10:06:00;96565.31;;;32.62
13219;BMP180;6674;49.152;11.918;2023-08-20T10:08:27;96568.91;;;32.81
13219;BMP180;6674;49.152;11.918;2023-08-20T10:10:56;96563.22;;;32.56
13219;BMP180;6674;49.152;11.918;2023-08-20T10:13:25;96562.59;;;32.74
13219;BMP180;6674;49.152;11.918;2023-08-20T10:15:52;96563.06;;;32.76
13219;BMP180;6674;49.152;11.918;2023-08-20T10:18:21;96569.00;;;32.58
13219;BMP180;6674;49.152;11.918;2023-08-20T10:20:49;96563.56;;;32.54
13219;BMP180;6674;49.152;11.918;2023-08-20T10:23:20;96559.28;;;32.26
13219;BMP180;6674;49.152;11.918;2023-08-20T10:25:48;96561.28;;;32.41
13219;BMP180;6674;49.152;11.918;2023-08-20T10:28:20;96556.09;;;32.60
13219;BMP180;6674;49.152;11.918;2023-08-20T10:31:04;96556.78;;;32.84
13219;BMP180;6674;49.152;11.918;2023-08-20T10:33:38;96564.16;;;32.75
13219;BMP180;6674;49.152;11.918;2023-08-20T10:36:09;96564.09;;;32.87
13219;BMP180;6674;49.152;11.918;2023-08-20T10:38:37;96565.31;;;32.89
13219;BMP180;6674;49.152;11.918;2023-08-20T10:41:08;96566.00;;;32.86
13219;BMP180;6674;49.152;11.918;2023-08-20T10:43:36;96572.69;;;32.92
13219;BMP180;6674;49.152;11.918;2023-08-20T10:46:07;96566.50;;;33.04
13219;BMP180;6674;49.152;11.918;2023-08-20T10:48:37;96561.41;;;33.14
13219;BMP180;6674;49.152;11.918;2023-08-20T10:51:09;96570.50;;;33.25
13219;BMP180;6674;49.152;11.918;2023-08-20T10:53:36;96557.22;;;33.44
13219;BMP180;6674;49.152;11.918;2023-08-20T10:56:13;96560.09;;;33.51
13219;BMP180;6674;49.152;11.918;2023-08-20T10:58:45;96558.44;;;33.61
13219;BMP180;6674;49.152;11.918;2023-08-20T11:01:13;96565.09;;;33.67
13219;BMP180;6674;49.152;11.918;2023-08-20T11:03:43;96558.69;;;33.72
13219;BMP180;6674;49.152;11.918;2023-08-20T11:06:11;96553.25;;;33.84
13219;BMP180;6674;49.152;11.918;2023-08-20T11:08:38;96557.19;;;34.05
13219;BMP180;6674;49.152;11.918;2023-08-20T11:11:06;96552.50;;;34.17
13219;BMP180;6674;49.152;11.918;2023-08-20T11:13:34;96557.78;;;34.14
13219;BMP180;6674;49.152;11.918;2023-08-20T11:16:02;96551.56;;;34.10
13219;BMP180;6674;49.152;11.918;2023-08-20T11:18:30;96558.94;;;34.32
13219;BMP180;6674;49.152;11.918;2023-08-20T11:21:00;96555.66;;;34.38
13219;BMP180;6674;49.152;11.918;2023-08-20T11:23:28;96553.53;;;34.47
13219;BMP180;6674;49.152;11.918;2023-08-20T11:25:56;96542.75;;;34.62
13219;BMP180;6674;49.152;11.918;2023-08-20T11:28:26;96549.78;;;34.70
13219;BMP180;6674;49.152;11.918;2023-08-20T11:30:54;96554.88;;;34.56
13219;BMP180;6674;49.152;11.918;2023-08-20T11:33:23;96544.31;;;34.63
13219;BMP180;6674;49.152;11.918;2023-08-20T11:35:51;96540.97;;;34.70
13219;BMP180;6674;49.152;11.918;2023-08-20T11:38:25;96543.59;;;34.66
13219;BMP180;6674;49.152;11.918;2023-08-20T11:40:52;96549.78;;;34.70
13219;BMP180;6674;49.152;11.918;2023-08-20T11:43:21;96555.16;;;34.89
13219;BMP180;6674;49.152;11.918;2023-08-20T11:45:48;96547.19;;;34.92
13219;BMP180;6674;49.152;11.918;2023-08-20T11:48:16;96538.50;;;34.99
13219;BMP180;6674;49.152;11.918;2023-08-20T11:50:43;96546.47;;;35.14
13219;BMP180;6674;49.152;11.918;2023-08-20T11:53:09;96536.44;;;35.11
13219;BMP180;6674;49.152;11.918;2023-08-20T11:55:39;96539.94;;;35.15
13219;BMP180;6674;49.152;11.918;2023-08-20T11:58:09;96537.59;;;35.33
13219;BMP180;6674;49.152;11.918;2023-08-20T12:00:36;96542.38;;;35.24
13219;BMP180;6674;49.152;11.918;2023-08-20T12:03:03;96533.94;;;35.22
13219;BMP180;6674;49.152;11.918;2023-08-20T12:05:30;96529.88;;;35.09
13219;BMP180;6674;49.152;11.918;2023-08-20T12:07:58;96531.84;;;35.12
13219;BMP180;6674;49.152;11.918;2023-08-20T12:10:25;96534.69;;;35.22
13219;BMP180;6674;49.152;11.918;2023-08-20T12:12:55;96532.75;;;35.41
13219;BMP180;6674;49.152;11.918;2023-08-20T12:15:24;96526.72;;;35.48
13219;BMP180;6674;49.152;11.918;2023-08-20T12:17:59;96522.47;;;35.69
13219;BMP180;6674;49.152;11.918;2023-08-20T12:20:27;96520.44;;;35.85
13219;BMP180;6674;49.152;11.918;2023-08-20T12:22:55;96521.03;;;35.75
13219;BMP180;6674;49.152;11.918;2023-08-20T12:25:21;96514.25;;;35.81
13219;BMP180;6674;49.152;11.918;2023-08-20T12:27:48;96512.63;;;35.77
13219;BMP180;6674;49.152;11.918;2023-08-20T12:30:16;96526.47;;;35.78
13219;BMP180;6674;49.152;11.918;2023-08-20T12:32:43;96505.25;;;35.96
13219;BMP180;6674;49.152;11.918;2023-08-20T12:35:10;96503.88;;;35.79
13219;BMP180;6674;49.152;11.918;2023-08-20T12:37:36;96505.28;;;35.74
13219;BMP180;6674;49.152;11.918;2023-08-20T12:40:04;96502.09;;;35.90
13219;BMP180;6674;49.152;11.918;2023-08-20T12:42:33;96495.44;;;35.81
13219;BMP180;6674;49.152;11.918;2023-08-20T12:45:00;96494.94;;;35.76
13219;BMP180;6674;49.152;11.918;2023-08-20T12:47:29;96498.31;;;35.95
13219;BMP180;6674;49.152;11.918;2023-08-20T12:49:55;96496.28;;;36.14
13219;BMP180;6674;49.152;11.918;2023-08-20T12:52:22;96499.50;;;36.23
13219;BMP180;6674;49.152;11.918;2023-08-20T12:54:50;96483.44;;;36.26
13219;BMP180;6674;49.152;11.918;2023-08-20T12:57:16;96486.72;;;36.17
13219;BMP180;6674;49.152;11.918;2023-08-20T12:59:43;96489.13;;;35.96
13219;BMP180;6674;49.152;11.918;2023-08-20T13:02:10;96487.56;;;35.95
13219;BMP180;6674;49.152;11.918;2023-08-20T13:04:39;96484.44;;;35.89
13219;BMP180;6674;49.152;11.918;2023-08-20T13:07:07;96481.56;;;36.05
13219;BMP180;6674;49.152;11.918;2023-08-20T13:09:34;96487.13;;;36.19
13219;BMP180;6674;49.152;11.918;2023-08-20T13:12:02;96472.69;;;36.26
13219;BMP180;6674;49.152;11.918;2023-08-20T13:14:30;96480.50;;;36.38
13219;BMP180;6674;49.152;11.918;2023-08-20T13:16:57;96474.94;;;36.24
13219;BMP180;6674;49.152;11.918;2023-08-20T13:19:25;96474.69;;;36.33
13219;BMP180;6674;49.152;11.918;2023-08-20T13:21:54;96470.03;;;36.30
13219;BMP180;6674;49.152;11.918;2023-08-20T13:24:21;96470.88;;;36.37
13219;BMP180;6674;49.152;11.918;2023-08-20T13:26:48;96477.88;;;36.16
13219;BMP180;6674;49.152;11.918;2023-08-20T13:29:14;96472.47;;;36.13
13219;BMP180;6674;49.152;11.918;2023-08-20T13:31:41;96472.47;;;36.13
13219;BMP180;6674;49.152;11.918;2023-08-20T13:34:09;96470.81;;;36.30
13219;BMP180;6674;49.152;11.918;2023-08-20T13:36:35;96470.50;;;36.39
13219;BMP180;6674;49.152;11.918;2023-08-20T13:39:04;96466.25;;;36.34
13219;BMP180;6674;49.152;11.918;2023-08-20T13:41:31;96464.44;;;36.16
13219;BMP180;6674;49.152;11.918;2023-08-20T13:43:57;96461.94;;;36.26
13219;BMP180;6674;49.152;11.918;2023-08-20T13:46:25;96463.31;;;36.17
13219;BMP180;6674;49.152;11.918;2023-08-20T13:48:52;96462.13;;;36.15
13219;BMP180;6674;49.152;11.918;2023-08-20T13:51:20;96465.41;;;36.01
13219;BMP180;6674;49.152;11.918;2023-08-20T13:53:46;96453.06;;;35.97
13219;BMP180;6674;49.152;11.918;2023-08-20T13:56:15;96464.34;;;36.06
13219;BMP180;6674;49.152;11.918;2023-08-20T13:58:41;96456.00;;;35.85
13219;BMP180;6674;49.152;11.918;2023-08-20T14:01:09;96452.66;;;35.95
13219;BMP180;6674;49.152;11.918;2023-08-20T14:03:36;96458.34;;;35.90
13219;BMP180;6674;49.152;11.918;2023-08-20T14:06:03;96457.94;;;35.88
13219;BMP180;6674;49.152;11.918;2023-08-20T14:08:30;96451.13;;;35.94
13219;BMP180;6674;49.152;11.918;2023-08-20T14:10:56;96454.66;;;36.01
13219;BMP180;6674;49.152;11.918;2023-08-20T14:13:24;96452.84;;;36.09